createdAt,value
2022-09-21T00:01:53.321Z,603.72
2022-09-21T00:04:20.413Z,652.97
2022-09-21T00:06:47.508Z,631.38
2022-09-21T00:09:14.615Z,648.47
2022-09-21T00:11:41.767Z,672.38
2022-09-21T00:14:11.578Z,659.95
2022-09-21T00:16:39.357Z,659.88
2022-09-21T00:19:06.737Z,523.17
2022-09-21T00:21:34.282Z,576.33
2022-09-21T00:24:02.598Z,592.50
2022-09-21T00:26:29.919Z,599.17
2022-09-21T00:28:58.041Z,621.35
2022-09-21T00:31:25.981Z,642.97
2022-09-21T00:33:53.173Z,664.47
2022-09-21T00:36:22.512Z,520.80
2022-09-21T00:38:54.198Z,537.42
2022-09-21T00:41:21.634Z,591.55
2022-09-21T00:43:50.013Z,640.42
2022-09-21T00:46:28.590Z,579.47
2022-09-21T00:48:55.926Z,597.17
2022-09-21T00:51:23.169Z,639.63
2022-09-21T00:53:53.589Z,652.47
2022-09-21T00:56:20.755Z,597.42
2022-09-21T00:58:49.987Z,587.17
2022-09-21T01:01:18.692Z,623.60
2022-09-21T01:03:48.792Z,641.13
2022-09-21T01:06:17.519Z,542.22
2022-09-21T01:08:46.019Z,596.22
2022-09-21T01:11:31.754Z,592.72
2022-09-21T01:13:58.829Z,588.83
2022-09-21T01:16:33.862Z,565.38
2022-09-21T01:19:11.154Z,623.53
2022-09-21T01:21:47.944Z,599.92
2022-09-21T01:24:22.694Z,658.42
2022-09-21T01:26:49.798Z,624.45
2022-09-21T01:29:33.362Z,539.05
2022-09-21T01:32:12.439Z,567.85
2022-09-21T01:34:43.500Z,590.65
2022-09-21T01:37:13.863Z,577.97
2022-09-21T01:39:42.936Z,587.15
2022-09-21T01:42:10.996Z,635.67
2022-09-21T01:44:39.995Z,661.47
2022-09-21T01:47:09.723Z,670.20
2022-09-21T01:49:38.508Z,694.92
2022-09-21T01:52:12.306Z,684.65
2022-09-21T01:54:46.835Z,692.35
2022-09-21T01:57:14.408Z,690.35
2022-09-21T01:59:47.849Z,586.28
2022-09-21T02:02:17.882Z,543.97
2022-09-21T02:04:45.076Z,510.85
2022-09-21T02:07:12.260Z,490.42
2022-09-21T02:09:40.207Z,547.88
2022-09-21T02:12:07.326Z,523.72
2022-09-21T02:14:34.711Z,533.55
2022-09-21T02:17:17.110Z,563.97
2022-09-21T02:19:44.164Z,619.38
2022-09-21T02:22:16.605Z,602.00
2022-09-21T02:24:52.509Z,606.80
2022-09-21T02:27:38.230Z,642.95
2022-09-21T02:30:11.214Z,626.70
2022-09-21T02:32:53.671Z,620.63
2022-09-21T02:35:20.757Z,512.65
2022-09-21T02:37:50.410Z,500.25
2022-09-21T02:40:27.287Z,546.30
2022-09-21T02:43:03.122Z,579.78
2022-09-21T02:45:36.096Z,549.88
2022-09-21T02:48:09.323Z,593.92
2022-09-21T02:50:41.202Z,583.00
2022-09-21T02:53:09.732Z,502.42
2022-09-21T02:55:37.659Z,552.90
2022-09-21T02:58:06.832Z,579.63
2022-09-21T03:00:35.344Z,480.50
2022-09-21T03:03:17.014Z,565.58
2022-09-21T03:08:11.130Z,514.83
2022-09-21T03:10:40.330Z,534.03
2022-09-21T03:13:10.925Z,502.38
2022-09-21T03:15:38.630Z,520.63
2022-09-21T03:18:06.694Z,541.22
2022-09-21T03:20:34.176Z,488.30
2022-09-21T03:23:01.469Z,542.15
2022-09-21T03:25:29.182Z,526.75
2022-09-21T03:27:56.623Z,550.45
2022-09-21T03:30:24.359Z,574.58
2022-09-21T03:32:52.045Z,460.35
2022-09-21T03:35:19.787Z,515.42
2022-09-21T03:37:46.886Z,519.95
2022-09-21T03:40:14.331Z,558.53
2022-09-21T03:42:41.830Z,572.67
2022-09-21T03:45:09.815Z,601.45
2022-09-21T03:47:38.116Z,576.40
2022-09-21T03:50:09.856Z,574.15
2022-09-21T03:52:38.496Z,590.13
2022-09-21T03:55:06.589Z,583.35
2022-09-21T03:57:34.408Z,593.80
2022-09-21T04:00:03.700Z,585.80
2022-09-21T04:02:31.935Z,478.60
2022-09-21T04:04:59.656Z,512.38
2022-09-21T04:07:27.266Z,525.80
2022-09-21T04:09:54.714Z,483.63
2022-09-21T04:12:22.701Z,502.88
2022-09-21T04:14:49.794Z,536.58
2022-09-21T04:17:16.920Z,574.42
2022-09-21T04:19:45.476Z,584.22
2022-09-21T04:22:13.408Z,552.83
2022-09-21T04:24:43.594Z,527.53
2022-09-21T04:27:11.295Z,581.08
2022-09-21T04:29:39.050Z,614.00
2022-09-21T04:32:06.944Z,599.60
2022-09-21T04:34:34.371Z,577.88
2022-09-21T04:37:01.473Z,506.50
2022-09-21T04:39:28.578Z,527.13
2022-09-21T04:41:56.792Z,568.28
2022-09-21T04:44:24.199Z,599.33
2022-09-21T04:46:51.293Z,581.33
2022-09-21T04:49:18.529Z,601.97
2022-09-21T04:51:45.665Z,552.60
2022-09-21T04:54:12.774Z,554.55
2022-09-21T04:56:40.058Z,594.78
2022-09-21T04:59:07.235Z,490.25
2022-09-21T05:01:34.537Z,510.13
2022-09-21T05:04:02.847Z,561.15
2022-09-21T05:06:30.479Z,547.10
2022-09-21T05:09:16.636Z,546.97
2022-09-21T05:11:43.779Z,547.35
2022-09-21T05:14:11.613Z,514.22
2022-09-21T05:16:38.731Z,517.22
2022-09-21T05:19:06.081Z,488.52
2022-09-21T05:21:33.302Z,488.13
2022-09-21T05:24:00.396Z,537.40
2022-09-21T05:26:27.560Z,565.80
2022-09-21T05:28:54.914Z,532.75
2022-09-21T05:31:31.364Z,476.77
2022-09-21T05:34:15.256Z,515.20
2022-09-21T05:36:45.108Z,553.00
2022-09-21T05:39:12.647Z,587.70
2022-09-21T05:41:39.995Z,472.95
2022-09-21T05:44:07.513Z,508.27
2022-09-21T05:46:56.476Z,552.25
2022-09-21T05:49:33.042Z,460.10
2022-09-21T05:52:00.144Z,467.98
2022-09-21T05:54:35.618Z,492.30
2022-09-21T05:57:35.214Z,464.73
2022-09-21T06:00:07.991Z,512.70
2022-09-21T06:02:53.979Z,499.55
2022-09-21T06:05:21.343Z,509.45
2022-09-21T06:07:48.540Z,497.42
2022-09-21T06:10:16.343Z,568.95
2022-09-21T06:12:43.925Z,537.63
2022-09-21T06:15:15.629Z,527.28
2022-09-21T06:17:43.021Z,555.13
2022-09-21T06:20:10.694Z,574.63
2022-09-21T06:22:37.846Z,580.42
2022-09-21T06:25:05.118Z,477.38
2022-09-21T06:27:32.253Z,523.60
2022-09-21T06:29:59.487Z,528.45
2022-09-21T06:32:26.822Z,508.10
2022-09-21T06:34:54.072Z,599.95
2022-09-21T06:37:21.201Z,550.53
2022-09-21T06:39:48.298Z,563.83
2022-09-21T06:42:15.424Z,573.60
2022-09-21T06:44:42.586Z,549.42
2022-09-21T06:47:09.756Z,574.22
2022-09-21T06:49:41.757Z,501.73
2022-09-21T06:52:09.665Z,546.08
2022-09-21T06:54:36.869Z,563.38
2022-09-21T06:57:04.044Z,582.15
2022-09-21T06:59:31.140Z,521.50
2022-09-21T07:01:58.585Z,504.27
2022-09-21T07:04:25.993Z,569.95
2022-09-21T07:06:53.590Z,544.70
2022-09-21T07:12:08.297Z,587.47
2022-09-21T07:14:35.509Z,619.30
2022-09-21T07:17:02.850Z,593.65
2022-09-21T07:19:29.979Z,566.78
2022-09-21T07:21:57.445Z,561.72
2022-09-21T07:24:24.582Z,513.15
2022-09-21T07:26:52.917Z,518.95
2022-09-21T07:29:20.054Z,521.88
2022-09-21T07:31:48.381Z,504.10
2022-09-21T07:34:15.614Z,446.77
2022-09-21T07:36:42.728Z,464.80
2022-09-21T07:39:10.334Z,495.13
2022-09-21T07:41:37.506Z,462.77
2022-09-21T07:44:04.885Z,516.00
2022-09-21T07:46:32.060Z,483.13
2022-09-21T07:48:59.188Z,475.00
2022-09-21T07:51:26.307Z,494.25
2022-09-21T07:53:57.181Z,529.58
2022-09-21T07:56:24.470Z,475.92
2022-09-21T07:59:07.065Z,475.05
2022-09-21T08:01:38.250Z,486.35
2022-09-21T08:04:06.864Z,466.95
2022-09-21T08:06:35.314Z,490.27
2022-09-21T08:09:03.499Z,463.77
2022-09-21T08:11:31.619Z,400.55
2022-09-21T08:14:00.975Z,451.58
2022-09-21T08:16:30.434Z,425.35
2022-09-21T08:18:58.121Z,358.10
2022-09-21T08:21:25.313Z,338.98
2022-09-21T08:23:52.439Z,361.77
2022-09-21T08:26:20.771Z,372.85
2022-09-21T08:28:49.263Z,375.70
2022-09-21T08:31:17.336Z,423.88
2022-09-21T08:33:44.640Z,389.23
2022-09-21T08:36:11.877Z,433.63
2022-09-21T08:38:39.693Z,404.25
2022-09-21T08:41:19.254Z,427.77
2022-09-21T08:43:50.160Z,404.23
2022-09-21T08:46:19.759Z,395.45
2022-09-21T08:48:50.522Z,431.67
2022-09-21T08:51:26.853Z,420.30
2022-09-21T08:53:56.212Z,405.50
2022-09-21T08:56:41.915Z,405.52
2022-09-21T08:59:17.920Z,426.80
2022-09-21T09:01:51.256Z,445.33
2022-09-21T09:04:30.709Z,428.10
2022-09-21T09:06:57.941Z,439.90
2022-09-21T09:09:31.107Z,430.70
2022-09-21T09:12:16.939Z,434.15
2022-09-21T09:14:47.314Z,403.60
2022-09-21T09:17:26.699Z,397.63
2022-09-21T09:19:59.011Z,361.25
2022-09-21T09:22:33.139Z,351.67
2022-09-21T09:25:04.113Z,322.75
2022-09-21T09:27:42.485Z,229.10
2022-09-21T09:30:26.472Z,317.40
2022-09-21T09:32:57.314Z,332.02
2022-09-21T09:35:27.251Z,208.02
2022-09-21T09:37:59.458Z,245.15
2022-09-21T09:40:37.731Z,305.13
2022-09-21T09:43:10.440Z,267.45
2022-09-21T09:46:03.011Z,265.20
2022-09-21T09:48:30.056Z,296.83
2022-09-21T09:50:57.459Z,195.45
2022-09-21T09:53:26.471Z,204.63
2022-09-21T09:55:54.907Z,143.55
2022-09-21T09:58:22.132Z,177.80
2022-09-21T10:00:53.212Z,182.35
2022-09-21T10:03:24.494Z,187.13
2022-09-21T10:05:51.892Z,174.27
2022-09-21T10:08:29.760Z,199.32
2022-09-21T10:10:57.294Z,208.02
2022-09-21T10:13:38.192Z,212.20
2022-09-21T10:16:07.002Z,233.93
2022-09-21T10:18:46.447Z,240.65
2022-09-21T10:21:20.235Z,226.30
2022-09-21T10:23:49.249Z,206.90
2022-09-21T10:26:17.414Z,201.60
2022-09-21T10:28:56.871Z,142.80
2022-09-21T10:31:24.998Z,112.85
2022-09-21T10:34:06.007Z,111.38
2022-09-21T10:36:35.101Z,172.48
2022-09-21T10:39:21.645Z,172.10
2022-09-21T10:42:09.018Z,188.75
2022-09-21T10:44:39.759Z,127.65
2022-09-21T10:47:24.975Z,145.05
2022-09-21T10:49:54.427Z,209.80
2022-09-21T10:52:23.086Z,118.13
2022-09-21T10:54:52.249Z,117.53
2022-09-21T10:57:21.466Z,161.15
2022-09-21T10:59:48.592Z,138.82
2022-09-21T11:02:32.306Z,167.63
2022-09-21T11:05:08.556Z,176.98
2022-09-21T11:07:48.473Z,220.35
2022-09-21T11:10:21.682Z,178.10
2022-09-21T11:12:54.594Z,141.77
2022-09-21T11:15:39.611Z,182.48
2022-09-21T11:18:22.882Z,202.90
2022-09-21T11:20:59.258Z,225.88
2022-09-21T11:23:35.626Z,245.73
2022-09-21T11:26:16.090Z,137.02
2022-09-21T11:28:46.304Z,195.67
2022-09-21T11:31:13.447Z,196.45
2022-09-21T11:34:03.851Z,194.60
2022-09-21T11:36:33.847Z,226.27
2022-09-21T11:39:11.568Z,260.27
2022-09-21T11:41:44.605Z,236.02
2022-09-21T11:44:20.997Z,242.73
2022-09-21T11:46:50.930Z,246.15
2022-09-21T11:49:18.202Z,228.20
2022-09-21T11:52:05.784Z,242.73
2022-09-21T11:54:51.891Z,279.42
2022-09-21T11:57:30.599Z,280.60
2022-09-21T12:00:06.892Z,269.20
2022-09-21T12:05:38.073Z,329.17
2022-09-21T12:10:56.142Z,360.10
2022-09-21T12:13:42.245Z,380.85
2022-09-21T12:16:19.515Z,354.65
2022-09-21T12:18:54.830Z,336.42
2022-09-21T12:21:39.736Z,300.50
2022-09-21T12:27:41.145Z,379.30
2022-09-21T12:30:12.704Z,381.55
2022-09-21T12:32:53.436Z,340.90
2022-09-21T12:35:25.598Z,378.08
2022-09-21T12:37:55.710Z,335.63
2022-09-21T12:40:27.997Z,313.73
2022-09-21T12:43:07.899Z,280.88
2022-09-21T12:45:48.829Z,389.30
2022-09-21T12:48:15.977Z,363.92
2022-09-21T12:50:44.392Z,239.35
2022-09-21T12:53:16.907Z,214.63
2022-09-21T12:55:50.028Z,281.52
2022-09-21T12:58:24.649Z,237.45
2022-09-21T13:01:01.144Z,281.95
2022-09-21T13:03:28.725Z,293.20
2022-09-21T13:06:09.821Z,302.77
2022-09-21T13:08:38.098Z,312.65
2022-09-21T13:11:07.756Z,342.45
2022-09-21T13:13:35.043Z,300.98
2022-09-21T13:16:04.293Z,307.48
2022-09-21T13:18:36.293Z,277.35
2022-09-21T13:21:16.063Z,286.13
2022-09-21T13:23:43.304Z,281.98
2022-09-21T13:26:11.672Z,225.27
2022-09-21T13:28:45.910Z,217.07
2022-09-21T13:31:37.144Z,259.70
2022-09-21T13:34:09.385Z,305.70
2022-09-21T13:36:37.248Z,297.92
2022-09-21T13:39:04.986Z,269.90
2022-09-21T13:41:51.831Z,264.60
2022-09-21T13:44:40.434Z,240.73
2022-09-21T13:47:08.981Z,255.30
2022-09-21T13:49:41.132Z,209.68
2022-09-21T13:52:14.358Z,222.05
2022-09-21T13:54:52.696Z,231.90
2022-09-21T13:57:30.098Z,256.63
2022-09-21T14:00:12.854Z,266.80
2022-09-21T14:02:41.422Z,242.02
2022-09-21T14:05:24.919Z,249.90
2022-09-21T14:08:18.424Z,257.50
2022-09-21T14:10:51.033Z,225.85
2022-09-21T14:13:27.219Z,278.98
2022-09-21T14:15:54.740Z,312.75
2022-09-21T14:18:35.730Z,292.13
2022-09-21T14:21:08.720Z,264.73
2022-09-21T14:23:37.365Z,274.13
2022-09-21T14:26:21.388Z,305.73
2022-09-21T14:28:51.437Z,321.67
2022-09-21T14:31:21.754Z,320.80
2022-09-21T14:33:51.326Z,328.07
2022-09-21T14:36:21.105Z,330.15
2022-09-21T14:38:54.575Z,310.05
2022-09-21T14:41:23.836Z,309.38
2022-09-21T14:43:53.073Z,344.77
2022-09-21T14:46:36.776Z,375.80
2022-09-21T14:49:23.148Z,365.77
2022-09-21T14:52:04.275Z,400.38
2022-09-21T14:54:42.146Z,331.45
2022-09-21T14:57:16.344Z,354.08
2022-09-21T14:59:49.284Z,395.38
2022-09-21T15:02:16.691Z,387.45
2022-09-21T15:05:07.130Z,404.38
2022-09-21T15:07:56.692Z,434.00
2022-09-21T15:10:49.740Z,389.35
2022-09-21T15:13:20.332Z,423.63
2022-09-21T15:16:07.228Z,440.73
2022-09-21T15:18:40.533Z,425.30
2022-09-21T15:21:21.353Z,435.83
2022-09-21T15:23:50.588Z,459.70
2022-09-21T15:26:23.957Z,444.23
2022-09-21T15:29:10.450Z,470.30
2022-09-21T15:31:42.148Z,484.17
2022-09-21T15:36:38.717Z,496.40
2022-09-21T15:39:06.284Z,484.67
2022-09-21T15:41:44.912Z,423.98
2022-09-21T15:44:12.094Z,444.95
2022-09-21T15:46:41.498Z,459.27
2022-09-21T15:49:12.277Z,455.98
2022-09-21T15:51:44.782Z,470.85
2022-09-21T15:54:19.880Z,507.25
2022-09-21T15:56:47.537Z,469.00
2022-09-21T15:59:18.200Z,481.33
2022-09-21T16:01:47.612Z,455.77
2022-09-21T16:04:17.969Z,477.80
2022-09-21T16:06:47.546Z,408.35
2022-09-21T16:09:27.089Z,450.52
2022-09-21T16:11:54.808Z,485.55
2022-09-21T16:14:41.549Z,467.13
2022-09-21T16:17:18.031Z,430.83
2022-09-21T16:19:45.209Z,452.98
2022-09-21T16:22:17.593Z,444.90
2022-09-21T16:24:46.219Z,484.48
2022-09-21T16:27:16.848Z,490.90
2022-09-21T16:29:45.648Z,465.35
2022-09-21T16:32:18.733Z,502.33
2022-09-21T16:34:51.258Z,447.92
2022-09-21T16:37:28.905Z,557.45
2022-09-21T16:39:59.978Z,590.00
2022-09-21T16:42:33.490Z,561.50
2022-09-21T16:45:00.991Z,635.10
2022-09-21T16:47:28.604Z,516.80
2022-09-21T16:50:00.277Z,589.42
2022-09-21T21:32:54.514Z,555.53
2022-09-21T21:35:21.624Z,534.58
2022-09-21T21:37:48.863Z,591.92
2022-09-21T21:40:16.383Z,533.25
2022-09-21T21:42:43.514Z,497.80
2022-09-21T21:45:11.327Z,529.53
2022-09-21T21:47:40.158Z,580.40
2022-09-21T21:50:08.123Z,555.10
2022-09-21T21:52:35.275Z,579.13
2022-09-21T21:55:02.614Z,581.05
2022-09-21T21:57:29.747Z,563.60
2022-09-21T21:59:56.912Z,611.85
2022-09-21T22:02:24.348Z,640.10
2022-09-21T22:04:52.668Z,632.05
2022-09-21T22:07:19.814Z,622.70
2022-09-21T22:09:47.008Z,615.47
2022-09-21T22:12:14.190Z,603.20
2022-09-21T22:14:41.339Z,532.30
2022-09-21T22:17:08.621Z,573.05
2022-09-21T22:19:43.239Z,607.03
2022-09-21T22:22:10.424Z,592.88
2022-09-21T22:24:37.590Z,506.55
2022-09-21T22:27:04.838Z,562.78
2022-09-21T22:29:32.036Z,580.30
2022-09-21T22:31:59.895Z,610.38
2022-09-21T22:34:27.023Z,548.72
2022-09-21T22:36:56.275Z,620.13
2022-09-21T22:39:23.460Z,611.78
2022-09-21T22:41:50.638Z,656.30
2022-09-21T22:44:17.776Z,493.58
2022-09-21T22:46:44.882Z,520.78
2022-09-21T22:49:12.065Z,560.20
2022-09-21T22:51:39.291Z,574.95
2022-09-21T22:54:06.704Z,613.63
2022-09-21T22:56:34.717Z,561.20
2022-09-21T22:59:02.739Z,519.42
2022-09-21T23:01:29.834Z,566.15
2022-09-21T23:04:01.075Z,591.08
2022-09-21T23:06:31.479Z,574.53
2022-09-21T23:08:59.148Z,587.75
2022-09-21T23:11:30.647Z,587.83
2022-09-21T23:13:58.121Z,519.47
2022-09-21T23:16:26.169Z,573.60
2022-09-21T23:18:53.861Z,567.50
2022-09-21T23:21:22.479Z,477.13
2022-09-21T23:23:49.736Z,501.35
2022-09-21T23:26:21.853Z,517.60
2022-09-21T23:28:53.473Z,523.00
2022-09-21T23:31:21.110Z,487.63
2022-09-21T23:33:49.846Z,521.88
2022-09-21T23:36:17.937Z,574.75
2022-09-21T23:38:46.582Z,533.88
2022-09-21T23:41:30.757Z,539.95
2022-09-21T23:44:18.280Z,585.65
2022-09-21T23:46:45.490Z,527.95
2022-09-21T23:49:12.652Z,484.58
2022-09-21T23:51:40.340Z,526.42
2022-09-21T23:54:07.747Z,522.75
2022-09-21T23:56:35.099Z,574.60
2022-09-21T23:59:02.472Z,549.85
